Time;durP1;ratioP1;P1;durP2;ratioP2;P2;SDS_P1;SDS_P2;PMS_P1;PMS_P2;Temp;Humidity;BMP_temperature;BMP_pressure;BME280_temperature;BME280_humidity;BME280_pressure;Samples;Min_cycle;Max_cycle;Signal;HPM_P1;HPM_P2
2023/10/30 00:01:13;;;;;;;3.65;1.00;;;13.20;99.90;;;13.22;100.00;99533.06;5246633;28;20044;-46
2023/10/30 00:03:46;;;;;;;5.00;0.93;;;13.10;99.90;;;13.26;100.00;99533.97;5247655;28;20040;-46
2023/10/30 00:06:18;;;;;;;3.85;1.33;;;13.10;99.90;;;13.23;100.00;99539.16;5247053;28;20055;-45
2023/10/30 00:08:50;;;;;;;3.45;0.80;;;13.20;99.90;;;13.24;100.00;99540.94;5250057;28;20056;-46
2023/10/30 00:11:28;;;;;;;4.95;0.90;;;13.20;99.90;;;13.25;100.00;99537.47;5248228;28;20052;-46
2023/10/30 00:14:00;;;;;;;1.40;0.80;;;13.10;99.90;;;13.26;100.00;99539.19;5246829;28;20524;-46
2023/10/30 00:16:33;;;;;;;6.00;1.00;;;13.20;99.90;;;13.28;100.00;99543.56;5247735;28;20042;-47
2023/10/30 00:19:05;;;;;;;2.50;0.82;;;13.20;99.90;;;13.33;100.00;99540.09;5251785;28;20050;-47
2023/10/30 00:21:38;;;;;;;3.30;0.77;;;13.20;99.90;;;13.38;100.00;99548.84;5246580;28;20047;-46
2023/10/30 00:24:10;;;;;;;3.45;0.80;;;13.20;99.90;;;13.37;100.00;99549.72;5245227;28;20050;-46
2023/10/30 00:26:44;;;;;;;4.38;1.08;;;13.30;99.90;;;13.39;100.00;99556.69;5245369;28;20055;-46
2023/10/30 00:29:17;;;;;;;3.15;0.73;;;13.30;99.90;;;13.39;100.00;99553.22;5264763;28;20119;-46
2023/10/30 00:31:49;;;;;;;4.65;0.77;;;13.30;99.90;;;13.42;100.00;99555.81;5242011;28;20147;-46
2023/10/30 00:34:22;;;;;;;2.70;1.15;;;13.30;99.90;;;13.44;100.00;99554.09;5245564;28;20051;-45
2023/10/30 00:36:54;;;;;;;3.97;0.93;;;13.30;99.90;;;13.45;100.00;99556.72;5245014;28;20075;-46
2023/10/30 00:39:31;;;;;;;2.97;1.05;;;13.30;99.90;;;13.46;100.00;99549.75;5245423;28;20077;-46
2023/10/30 00:42:06;;;;;;;3.60;0.80;;;13.30;99.90;;;13.45;100.00;99550.63;5243135;28;20051;-46
2023/10/30 00:44:39;;;;;;;3.78;0.98;;;13.40;99.90;;;13.46;100.00;99547.13;5244865;28;20059;-46
2023/10/30 00:47:11;;;;;;;3.60;0.93;;;13.40;99.90;;;13.45;100.00;99553.22;5244918;28;20533;-47
2023/10/30 00:49:44;;;;;;;2.38;0.85;;;13.40;99.90;;;13.43;100.00;99552.34;5244417;28;20051;-46
2023/10/30 00:52:16;;;;;;;1.88;0.65;;;13.30;99.90;;;13.42;100.00;99558.44;5245570;28;20063;-46
2023/10/30 00:54:49;;;;;;;2.00;0.60;;;13.30;99.90;;;13.41;100.00;99564.53;5242785;28;20089;-46
2023/10/30 00:57:23;;;;;;;4.00;0.98;;;13.30;99.90;;;13.41;100.00;99569.78;5245771;28;20423;-46
2023/10/30 00:59:55;;;;;;;5.25;0.88;;;13.30;99.90;;;13.39;100.00;99555.81;5243719;28;21124;-46
2023/10/30 01:02:27;;;;;;;3.95;0.98;;;13.30;99.90;;;13.40;100.00;99554.94;5263899;28;20048;-45
2023/10/30 01:05:00;;;;;;;2.25;0.82;;;13.40;99.90;;;13.40;100.00;99562.81;5245289;28;20044;-46
2023/10/30 01:07:32;;;;;;;2.60;0.75;;;13.30;99.90;;;13.40;100.00;99568.03;5243711;28;20457;-46
2023/10/30 01:10:06;;;;;;;3.20;1.17;;;13.30;99.90;;;13.38;100.00;99564.56;5244355;28;20050;-46
2023/10/30 01:12:39;;;;;;;7.32;1.42;;;13.30;99.90;;;13.39;100.00;99558.44;5240461;28;20503;-46
2023/10/30 01:15:12;;;;;;;6.15;1.20;;;13.30;99.90;;;13.37;100.00;99562.81;5245221;28;20054;-46
2023/10/30 01:17:48;;;;;;;3.75;1.23;;;13.30;99.90;;;13.33;100.00;99561.03;5243559;28;20102;-45
2023/10/30 01:20:20;;;;;;;4.15;0.98;;;13.30;99.90;;;13.30;100.00;99557.56;5244396;28;20040;-45
2023/10/30 01:22:52;;;;;;;3.40;0.95;;;13.30;99.90;;;13.28;100.00;99553.16;5245075;28;20376;-46
2023/10/30 01:25:26;;;;;;;4.80;0.65;;;13.20;99.90;;;13.28;100.00;99555.78;5245321;28;20594;-46
2023/10/30 01:28:00;;;;;;;2.95;0.70;;;13.20;99.90;;;13.27;100.00;99562.75;5244608;28;20056;-45
2023/10/30 01:30:33;;;;;;;5.47;1.17;;;13.20;99.90;;;13.26;100.00;99558.38;5244539;28;20040;-46
2023/10/30 01:33:05;;;;;;;3.15;1.08;;;13.20;99.90;;;13.24;100.00;99568.00;5239991;28;20059;-46
2023/10/30 01:35:37;;;;;;;3.45;0.90;;;13.20;99.90;;;13.22;100.00;99569.69;5244681;28;20054;-45
2023/10/30 01:38:10;;;;;;;3.88;1.00;;;13.10;99.90;;;13.23;100.00;99573.19;5239641;28;20048;-46
2023/10/30 01:40:48;;;;;;;2.28;0.90;;;13.20;99.90;;;13.21;100.00;99583.66;5244222;28;20040;-46
2023/10/30 01:43:31;;;;;;;1.75;0.95;;;13.10;99.90;;;13.21;100.00;99583.66;5242560;28;20039;-46
2023/10/30 01:46:05;;;;;;;5.20;1.10;;;13.10;99.90;;;13.19;100.00;99580.13;5244340;28;20051;-45
2023/10/30 01:48:38;;;;;;;2.75;0.70;;;13.10;99.90;;;13.18;100.00;99586.25;5244382;28;20071;-47
2023/10/30 01:51:13;;;;;;;6.63;0.80;;;13.10;99.90;;;13.17;100.00;99589.72;5241813;28;20043;-46
2023/10/30 01:53:46;;;;;;;3.53;0.73;;;13.10;99.90;;;13.16;100.00;99589.69;5244650;28;20515;-47
2023/10/30 01:56:19;;;;;;;5.15;0.68;;;13.10;99.90;;;13.15;100.00;99583.59;5243965;28;20415;-46
2023/10/30 01:58:53;;;;;;;4.07;0.85;;;13.10;99.90;;;13.16;100.00;99595.81;5243718;28;20130;-46
2023/10/30 02:01:27;;;;;;;1.52;0.68;;;13.10;99.90;;;13.16;100.00;99595.81;5243154;28;20054;-46
2023/10/30 02:03:59;;;;;;;4.32;1.00;;;13.10;99.90;;;13.15;100.00;99601.03;5244287;28;20522;-46
2023/10/30 02:06:32;;;;;;;3.35;0.70;;;13.00;99.90;;;13.14;100.00;99601.91;5243706;28;20051;-46
2023/10/30 02:09:05;;;;;;;4.35;1.02;;;13.00;99.90;;;13.13;100.00;99606.25;5243651;28;20522;-46
2023/10/30 02:11:38;;;;;;;6.93;1.45;;;13.10;99.90;;;13.12;100.00;99604.53;5239132;28;20044;-45
2023/10/30 02:14:11;;;;;;;2.22;0.82;;;13.00;99.90;;;13.11;100.00;99602.78;5258673;28;20043;-46
2023/10/30 02:16:44;;;;;;;3.80;0.98;;;13.00;99.90;;;13.08;100.00;99602.75;5243562;28;20044;-47
2023/10/30 02:19:23;;;;;;;3.30;0.82;;;13.00;99.90;;;13.06;100.00;99596.63;5244251;28;20138;-45
2023/10/30 02:21:56;;;;;;;3.13;1.08;;;13.00;99.90;;;13.06;100.00;99591.41;5244016;28;20051;-46
2023/10/30 02:24:29;;;;;;;1.13;0.80;;;13.00;99.90;;;13.06;100.00;99591.41;5244302;28;20055;-46
2023/10/30 02:27:03;;;;;;;3.47;0.90;;;13.00;99.90;;;13.06;100.00;99586.16;5262998;28;20115;-46
2023/10/30 02:29:35;;;;;;;3.15;1.10;;;13.00;99.90;;;13.06;100.00;99583.56;5262021;28;20474;-46
2023/10/30 02:32:08;;;;;;;2.15;0.80;;;13.00;99.90;;;13.05;100.00;99587.03;5260969;28;20109;-48
2023/10/30 02:34:40;;;;;;;3.53;0.95;;;13.00;99.90;;;13.03;100.00;99588.75;5243616;28;20043;-46
2023/10/30 02:37:13;;;;;;;2.28;1.08;;;13.00;99.90;;;13.03;100.00;99588.75;5247667;28;20300;-46
2023/10/30 02:39:45;;;;;;;4.55;0.90;;;12.90;99.90;;;13.04;100.00;99583.56;5246923;28;20464;-47
2023/10/30 02:42:19;;;;;;;4.10;0.75;;;12.90;99.90;;;13.04;100.00;99574.84;5240277;28;20036;-46
2023/10/30 02:44:51;;;;;;;1.85;0.77;;;13.00;99.90;;;13.02;100.00;99576.53;5253143;28;20499;-46
2023/10/30 02:47:24;;;;;;;2.28;0.80;;;12.90;99.90;;;13.04;100.00;99580.06;5244105;28;20048;-46
2023/10/30 02:49:57;;;;;;;2.15;0.75;;;12.90;99.90;;;13.02;100.00;99573.94;5244575;28;20047;-47
2023/10/30 02:52:30;;;;;;;4.00;1.02;;;12.90;99.90;;;13.03;100.00;99573.06;5244749;28;20109;-46
2023/10/30 02:55:03;;;;;;;2.85;0.80;;;12.90;99.90;;;13.03;100.00;99566.06;5244981;28;20068;-47
2023/10/30 02:57:37;;;;;;;3.33;0.73;;;12.90;99.90;;;13.01;100.00;99559.97;5246076;28;20055;-45
2023/10/30 03:00:10;;;;;;;3.78;0.82;;;13.00;99.90;;;13.00;100.00;99571.31;5235474;28;20539;-47
2023/10/30 03:02:43;;;;;;;4.00;0.90;;;13.00;99.90;;;12.99;100.00;99566.06;5262387;28;20047;-46
2023/10/30 03:05:16;;;;;;;1.70;0.70;;;12.90;99.90;;;12.97;100.00;99557.31;5245290;28;20142;-46
2023/10/30 03:07:49;;;;;;;2.13;0.80;;;12.90;99.90;;;12.95;100.00;99564.28;5246204;28;20049;-46
2023/10/30 03:10:22;;;;;;;1.98;0.90;;;12.90;99.90;;;12.94;100.00;99560.81;5240124;28;20076;-45
2023/10/30 03:12:56;;;;;;;3.72;1.00;;;12.90;99.90;;;12.94;100.00;99555.59;5248451;28;20059;-46
2023/10/30 03:15:28;;;;;;;4.72;1.27;;;12.90;99.90;;;12.96;100.00;99566.03;5243389;28;20052;-46
2023/10/30 03:18:02;;;;;;;1.95;0.85;;;12.90;99.90;;;12.96;100.00;99560.81;5248696;28;20047;-46
2023/10/30 03:20:35;;;;;;;4.20;0.98;;;12.90;99.90;;;12.97;100.00;99562.56;5249672;28;20048;-45
2023/10/30 03:23:07;;;;;;;4.20;0.82;;;12.90;99.90;;;12.95;100.00;99565.16;5238252;28;20049;-47
2023/10/30 03:25:40;;;;;;;3.15;0.90;;;12.90;99.90;;;12.98;100.00;99569.56;5246378;28;20051;-47
2023/10/30 03:28:13;;;;;;;5.57;2.03;;;12.90;99.90;;;12.97;100.00;99563.44;5247879;28;20071;-46
2023/10/30 03:30:46;;;;;;;4.43;1.30;;;12.90;99.90;;;12.97;100.00;99562.56;5250833;28;20051;-46
2023/10/30 03:33:20;;;;;;;2.05;0.65;;;12.90;99.90;;;12.97;100.00;99562.56;5248524;28;20050;-46
2023/10/30 03:35:54;;;;;;;2.33;0.80;;;12.90;99.90;;;12.96;100.00;99566.91;5247725;28;20510;-45
2023/10/30 03:38:26;;;;;;;2.28;0.80;;;12.90;99.90;;;12.99;100.00;99576.53;5247528;28;20047;-47
2023/10/30 03:40:59;;;;;;;1.67;0.70;;;12.90;99.90;;;12.98;100.00;99574.78;5247823;28;20533;-47
2023/10/30 03:43:33;;;;;;;2.83;0.70;;;12.90;99.90;;;12.99;100.00;99576.53;5261918;28;20410;-47
2023/10/30 03:46:05;;;;;;;3.22;0.88;;;12.90;99.90;;;12.99;100.00;99573.94;5247905;28;20056;-45
2023/10/30 03:48:38;;;;;;;1.50;0.88;;;12.90;99.90;;;13.00;100.00;99573.06;5247463;28;20044;-45
2023/10/30 03:51:10;;;;;;;2.95;0.73;;;12.90;99.90;;;13.02;100.00;99576.53;5242351;28;20059;-46
2023/10/30 03:53:42;;;;;;;3.25;0.82;;;12.90;99.90;;;13.03;100.00;99578.28;5241656;28;20040;-46
2023/10/30 03:56:15;;;;;;;4.63;0.75;;;13.00;99.90;;;13.04;100.00;99582.69;5247439;28;20048;-46
2023/10/30 03:58:48;;;;;;;4.63;1.48;;;13.00;99.90;;;13.05;100.00;99576.56;5247269;28;20051;-46
2023/10/30 04:01:21;;;;;;;5.28;1.30;;;12.90;99.90;;;13.04;100.00;99569.59;5246489;28;20291;-46
2023/10/30 04:03:55;;;;;;;4.00;0.80;;;13.00;99.90;;;13.03;100.00;99563.47;5248952;28;20043;-47
2023/10/30 04:06:27;;;;;;;6.32;1.42;;;12.90;99.90;;;13.02;100.00;99560.84;5246940;28;20524;-45
2023/10/30 04:08:59;;;;;;;8.80;3.72;;;13.00;99.90;;;13.01;100.00;99564.34;5248250;28;20052;-46
2023/10/30 04:11:32;;;;;;;8.20;3.00;;;12.90;99.90;;;13.04;100.00;99572.22;5246992;28;20040;-46
2023/10/30 04:14:09;;;;;;;7.15;1.80;;;13.00;99.90;;;13.08;100.00;99570.47;5248979;28;20039;-47
2023/10/30 04:16:42;;;;;;;6.03;1.42;;;13.00;99.90;;;13.09;100.00;99567.84;5247831;28;20048;-46
2023/10/30 04:19:14;;;;;;;3.53;1.38;;;13.00;99.90;;;13.08;100.00;99566.13;5247359;28;20059;-45
2023/10/30 04:21:47;;;;;;;6.28;2.13;;;13.00;99.90;;;13.08;100.00;99560.00;5245899;28;20533;-45
2023/10/30 04:24:20;;;;;;;5.00;1.63;;;13.00;99.90;;;13.08;100.00;99560.88;5247314;28;20461;-46
2023/10/30 04:26:52;;;;;;;3.25;1.45;;;13.00;99.90;;;13.08;100.00;99565.25;5248744;28;20062;-46
2023/10/30 04:29:26;;;;;;;3.72;1.50;;;13.00;99.90;;;13.07;100.00;99556.53;5240082;28;20052;-47
2023/10/30 04:31:58;;;;;;;5.00;1.52;;;13.00;99.90;;;13.08;100.00;99552.16;5245812;28;20050;-47
2023/10/30 04:34:32;;;;;;;2.60;0.98;;;13.00;99.90;;;13.09;100.00;99551.28;5246676;28;20515;-46
2023/10/30 04:37:05;;;;;;;3.13;0.90;;;13.00;99.90;;;13.08;100.00;99555.66;5235411;28;20040;-47
2023/10/30 04:39:38;;;;;;;5.47;1.10;;;13.00;99.90;;;13.10;100.00;99558.25;5266423;28;20087;-46
2023/10/30 04:42:10;;;;;;;3.45;1.10;;;13.00;99.90;;;13.09;100.00;99560.00;5246685;28;20044;-46
2023/10/30 04:44:44;;;;;;;4.30;1.27;;;13.00;99.90;;;13.10;100.00;99555.66;5246503;28;20052;-46
2023/10/30 04:47:19;;;;;;;6.30;1.50;;;13.00;99.90;;;13.11;100.00;99562.66;5245109;28;20048;-47
2023/10/30 04:49:51;;;;;;;4.38;1.17;;;13.00;99.90;;;13.09;100.00;99567.84;5248613;28;20044;-45
2023/10/30 04:52:25;;;;;;;6.15;1.58;;;13.00;99.90;;;13.09;100.00;99574.84;5245838;28;20044;-45
2023/10/30 04:54:57;;;;;;;5.20;1.20;;;13.00;99.90;;;13.08;100.00;99580.94;5246330;28;20044;-46
2023/10/30 04:57:30;;;;;;;2.50;0.93;;;13.00;99.90;;;13.07;100.00;99582.69;5246064;28;20439;-46
2023/10/30 05:00:05;;;;;;;5.00;1.05;;;13.00;99.90;;;13.11;100.00;99587.06;5246609;28;20044;-46
2023/10/30 05:02:38;;;;;;;4.85;1.15;;;13.00;99.90;;;13.07;100.00;99593.16;5245452;28;20040;-45
2023/10/30 05:05:10;;;;;;;2.88;1.10;;;13.00;99.90;;;13.05;100.00;99581.81;5247087;28;20044;-46
2023/10/30 05:07:44;;;;;;;6.35;1.20;;;13.00;99.90;;;13.07;100.00;99573.97;5245437;28;20052;-46
2023/10/30 05:10:16;;;;;;;3.72;1.02;;;13.00;99.90;;;13.05;100.00;99576.56;5246130;28;20566;-47
2023/10/30 05:12:49;;;;;;;5.88;1.23;;;13.00;99.90;;;13.01;100.00;99572.19;5244431;28;20036;-46
2023/10/30 05:15:22;;;;;;;2.70;1.20;;;12.90;99.90;;;13.02;100.00;99581.78;5245979;28;20048;-46
2023/10/30 05:17:58;;;;;;;3.40;1.02;;;12.90;99.90;;;13.02;100.00;99584.38;5245817;28;20052;-46
2023/10/30 05:20:31;;;;;;;3.42;1.05;;;13.00;99.90;;;12.98;100.00;99586.13;5265260;28;20052;-46
2023/10/30 05:23:03;;;;;;;3.30;1.10;;;13.00;99.90;;;12.97;100.00;99588.72;5245740;28;20043;-46
2023/10/30 05:25:36;;;;;;;4.00;1.33;;;12.90;99.90;;;12.96;100.00;99587.84;5246082;28;20575;-46
2023/10/30 05:28:08;;;;;;;6.60;1.10;;;12.90;99.90;;;12.95;100.00;99601.78;5236908;28;20044;-46
2023/10/30 05:30:42;;;;;;;3.88;1.20;;;12.90;99.90;;;12.95;100.00;99607.03;5247069;28;20097;-47
2023/10/30 05:33:14;;;;;;;2.95;1.10;;;12.90;99.90;;;12.94;100.00;99604.41;5245617;28;20044;-46
2023/10/30 05:35:52;;;;;;;4.03;1.20;;;12.90;99.90;;;12.95;100.00;99598.31;5245258;28;20052;-46
2023/10/30 05:38:24;;;;;;;3.65;1.02;;;12.90;99.90;;;12.93;100.00;99597.44;5251931;28;20466;-45
2023/10/30 05:40:57;;;;;;;1.45;0.95;;;12.90;99.90;;;12.93;100.00;99598.31;5263153;28;20060;-46
2023/10/30 05:43:29;;;;;;;6.18;1.40;;;12.90;99.90;;;12.93;100.00;99608.75;5240392;28;20044;-46
2023/10/30 05:46:03;;;;;;;1.80;1.13;;;12.90;99.90;;;12.95;100.00;99600.91;5246042;28;20067;-45
2023/10/30 05:48:36;;;;;;;2.28;0.98;;;12.90;99.90;;;12.94;100.00;99601.78;5245742;28;20097;-45
2023/10/30 05:51:08;;;;;;;3.45;1.13;;;12.90;99.90;;;12.94;100.00;99605.28;5235454;28;20051;-46
2023/10/30 05:53:42;;;;;;;2.55;1.00;;;12.90;99.90;;;12.93;100.00;99602.66;5244135;28;20052;-46
2023/10/30 05:56:14;;;;;;;3.38;1.27;;;12.90;99.90;;;12.90;100.00;99613.09;5263946;28;20131;-45
2023/10/30 05:58:47;;;;;;;4.30;1.25;;;12.80;99.90;;;12.90;100.00;99619.19;5263886;28;20044;-46
2023/10/30 06:01:20;;;;;;;2.90;1.20;;;12.80;99.90;;;12.88;100.00;99614.81;5239477;28;20040;-46
2023/10/30 06:03:53;;;;;;;2.35;1.10;;;12.80;99.90;;;12.87;100.00;99613.06;5245207;28;20400;-46
2023/10/30 06:06:25;;;;;;;2.15;1.02;;;12.80;99.90;;;12.85;100.00;99613.06;5245454;28;20051;-45
2023/10/30 06:08:58;;;;;;;2.08;1.20;;;12.80;99.90;;;12.85;100.00;99599.13;5244409;28;20471;-45
2023/10/30 06:11:30;;;;;;;2.63;1.30;;;12.80;99.90;;;12.83;100.00;99600.84;5239869;28;20044;-46
2023/10/30 06:14:02;;;;;;;4.45;1.10;;;12.80;99.90;;;12.83;100.00;99600.84;5245388;28;20278;-46
2023/10/30 06:16:36;;;;;;;5.60;1.48;;;12.80;99.90;;;12.82;100.00;99599.97;5245614;28;20415;-45
2023/10/30 06:19:09;;;;;;;2.65;1.40;;;12.80;99.90;;;12.81;100.00;99587.75;5235713;28;20441;-44
2023/10/30 06:21:43;;;;;;;5.63;1.58;;;12.70;99.90;;;12.82;100.00;99593.84;5243680;28;20059;-46
2023/10/30 06:24:19;;;;;;;2.55;1.13;;;12.80;99.90;;;12.84;100.00;99586.88;5243381;28;20044;-46
2023/10/30 06:26:51;;;;;;;3.53;1.50;;;12.80;99.90;;;12.84;100.00;99592.13;5260139;28;20322;-47
2023/10/30 06:29:24;;;;;;;3.03;1.98;;;12.80;99.90;;;12.84;100.00;99581.66;5245420;28;20059;-45
2023/10/30 06:31:57;;;;;;;5.70;1.60;;;12.80;99.90;;;12.88;100.00;99588.66;5244931;28;20414;-45
2023/10/30 06:34:30;;;;;;;3.88;1.45;;;12.80;99.90;;;12.91;100.00;99580.81;5251119;28;20419;-45
2023/10/30 06:37:03;;;;;;;3.33;1.52;;;12.80;99.90;;;12.92;100.00;99580.88;5253622;28;20063;-45
2023/10/30 06:39:35;;;;;;;3.58;1.52;;;12.80;99.90;;;12.94;100.00;99589.59;5252476;28;20048;-46
2023/10/30 06:42:08;;;;;;;4.93;1.52;;;12.90;99.90;;;12.96;100.00;99579.13;5260513;28;20051;-46
2023/10/30 06:44:40;;;;;;;3.30;1.58;;;12.90;99.90;;;12.98;100.00;99582.66;5253089;28;20063;-45
2023/10/30 06:47:14;;;;;;;2.70;1.70;;;12.90;99.90;;;13.02;100.00;99581.78;5264856;28;20043;-45
2023/10/30 06:49:46;;;;;;;5.32;1.90;;;12.90;99.90;;;13.05;100.00;99576.56;5249397;28;20059;-45
2023/10/30 06:52:22;;;;;;;6.15;1.90;;;13.00;99.90;;;13.06;100.00;99575.72;5256763;28;20499;-46
2023/10/30 06:54:54;;;;;;;5.35;1.63;;;13.00;99.90;;;13.09;100.00;99575.72;5252676;28;20499;-46
2023/10/30 06:57:27;;;;;;;3.35;1.40;;;13.00;99.90;;;13.10;100.00;99573.97;5260074;28;20124;-45
2023/10/30 06:59:59;;;;;;;5.35;2.25;;;13.00;99.90;;;13.08;100.00;99576.56;5250389;28;20055;-45
2023/10/30 07:02:34;;;;;;;5.32;2.10;;;13.00;99.90;;;13.08;100.00;99579.19;5249224;28;20117;-46
2023/10/30 07:05:06;;;;;;;;;;;13.00;99.90;;;13.07;100.00;99590.53;5251064;28;20048;-45
2023/10/30 07:07:39;;;;;;;5.63;1.90;;;13.00;99.90;;;13.05;100.00;99587.03;5248562;28;19920;-45
2023/10/30 07:10:11;;;;;;;3.03;1.60;;;13.00;99.90;;;13.06;100.00;99593.16;5252566;28;20046;-45
2023/10/30 07:12:44;;;;;;;5.78;1.92;;;13.00;99.90;;;13.03;100.00;99593.97;5248719;28;20452;-45
2023/10/30 07:15:16;;;;;;;4.00;1.52;;;13.00;99.90;;;13.05;100.00;99597.50;5253702;28;20050;-45
2023/10/30 07:17:50;;;;;;;2.70;1.65;;;13.00;99.90;;;13.06;100.00;99601.00;5249767;28;20515;-45
2023/10/30 07:20:23;;;;;;;3.90;1.83;;;13.00;99.90;;;13.07;100.00;99601.00;5251871;28;20063;-45
2023/10/30 07:22:55;;;;;;;4.18;1.85;;;13.00;99.90;;;13.08;100.00;99594.03;5248744;28;20135;-45
2023/10/30 07:25:28;;;;;;;5.53;1.92;;;13.00;99.90;;;13.08;100.00;99605.34;5249159;28;20040;-45
2023/10/30 07:28:00;;;;;;;4.72;1.60;;;13.00;99.90;;;13.12;100.00;99598.41;5247087;28;20047;-45
2023/10/30 07:30:32;;;;;;;4.00;1.45;;;13.00;99.90;;;13.16;100.00;99600.16;5248038;28;20067;-45
2023/10/30 07:33:06;;;;;;;2.78;1.48;;;13.00;99.90;;;13.19;100.00;99600.19;5248021;28;20044;-46
2023/10/30 07:35:38;;;;;;;3.45;1.70;;;13.10;99.90;;;13.21;100.00;99595.88;5247501;28;20510;-46
2023/10/30 07:38:14;;;;;;;2.90;1.48;;;13.10;99.90;;;13.22;100.00;99601.09;5246678;28;20044;-45
2023/10/30 07:40:46;;;;;;;5.28;1.65;;;13.10;99.90;;;13.22;100.00;99605.47;5247080;28;20060;-45
2023/10/30 07:43:18;;;;;;;4.13;1.83;;;13.10;99.90;;;13.25;100.00;99605.50;5246552;28;20078;-45
2023/10/30 07:45:51;;;;;;;6.40;2.10;;;13.10;99.90;;;13.26;100.00;99609.84;5244657;28;20054;-45
2023/10/30 07:48:28;;;;;;;3.90;1.63;;;13.20;99.90;;;13.27;100.00;99604.63;5257039;28;20039;-46
2023/10/30 07:51:04;;;;;;;4.15;1.95;;;13.20;99.90;;;13.29;100.00;99613.34;5248012;28;20048;-45
2023/10/30 07:53:37;;;;;;;3.10;1.55;;;13.20;99.90;;;13.34;100.00;99609.88;5243975;28;20044;-45
2023/10/30 07:56:10;;;;;;;4.70;1.85;;;13.20;99.90;;;13.37;100.00;99616.03;5246285;28;20444;-45
2023/10/30 07:58:42;;;;;;;3.35;1.83;;;13.20;99.90;;;13.38;100.00;99602.06;5209322;28;20061;-45
2023/10/30 08:01:18;;;;;;;6.18;1.92;;;13.30;99.90;;;13.45;100.00;99608.19;5235532;28;20052;-45
2023/10/30 08:03:52;;;;;;;4.25;1.73;;;13.30;99.90;;;13.48;100.00;99598.59;5245261;28;20399;-45
2023/10/30 08:06:25;;;;;;;5.40;1.92;;;13.30;99.90;;;13.53;100.00;99585.53;5247304;28;20609;-44
2023/10/30 08:08:57;;;;;;;5.65;1.73;;;13.40;99.90;;;13.60;100.00;99603.00;5238954;28;20121;-45
2023/10/30 08:11:30;;;;;;;7.63;1.95;;;13.40;99.90;;;13.71;100.00;99601.31;5248272;28;20086;-45
2023/10/30 08:14:02;;;;;;;7.25;2.00;;;13.50;99.90;;;13.89;100.00;99594.34;5240745;28;20063;-45
2023/10/30 08:16:35;;;;;;;5.85;1.92;;;13.70;99.90;;;14.06;100.00;99588.28;5243833;28;20578;-46
2023/10/30 08:19:10;;;;;;;4.32;1.60;;;13.80;99.90;;;14.19;100.00;99589.19;5237790;28;20097;-46
2023/10/30 08:21:42;;;;;;;3.00;1.60;;;13.90;99.90;;;14.27;100.00;99590.06;5246712;28;20052;-47
2023/10/30 08:24:18;;;;;;;4.60;1.83;;;14.00;99.90;;;14.40;100.00;99589.19;5266013;28;20051;-45
2023/10/30 08:26:50;;;;;;;4.63;1.63;;;14.10;99.90;;;14.52;100.00;99603.22;5241698;28;20060;-45
2023/10/30 08:29:23;;;;;;;2.58;1.35;;;14.20;99.90;;;14.61;100.00;99597.97;5248006;28;20059;-45
2023/10/30 08:31:55;;;;;;;4.15;1.60;;;14.30;99.90;;;14.71;100.00;99604.94;5247330;28;20044;-45
2023/10/30 08:34:32;;;;;;;3.63;1.45;;;14.50;99.90;;;14.79;100.00;99592.69;5247775;28;20510;-45
2023/10/30 08:37:05;;;;;;;3.92;1.80;;;14.50;99.90;;;14.83;100.00;99591.81;5246762;28;20089;-45
2023/10/30 08:39:37;;;;;;;3.83;1.35;;;14.60;99.90;;;14.89;100.00;99589.19;5244452;28;20044;-45
2023/10/30 08:42:09;;;;;;;3.03;1.42;;;14.70;99.90;;;14.95;100.00;99593.56;5242930;28;20044;-45
2023/10/30 08:44:42;;;;;;;2.97;1.40;;;14.80;99.90;;;15.05;100.00;99586.53;5247422;28;20076;-45
2023/10/30 08:47:14;;;;;;;4.82;1.20;;;14.80;99.90;;;15.31;100.00;99582.06;5246249;28;20064;-45
2023/10/30 08:49:48;;;;;;;4.22;1.40;;;15.00;99.90;;;15.44;100.00;99589.03;5240249;28;20044;-45
2023/10/30 08:52:21;;;;;;;2.03;1.25;;;15.20;99.90;;;15.48;100.00;99590.75;5242364;28;20070;-45
2023/10/30 08:54:53;;;;;;;4.07;1.40;;;15.20;99.90;;;15.53;100.00;99593.38;5241427;28;20511;-46
2023/10/30 08:57:25;;;;;;;2.42;1.33;;;15.30;99.90;;;15.59;100.00;99587.22;5245576;28;20055;-45
2023/10/30 08:59:58;;;;;;;3.20;0.95;;;15.30;99.90;;;15.63;100.00;99581.09;5241022;28;21002;-45
2023/10/30 09:02:33;;;;;;;3.17;1.40;;;15.40;99.90;;;15.71;100.00;99581.91;5262659;28;20118;-45
2023/10/30 09:05:07;;;;;;;4.15;1.40;;;15.40;99.90;;;15.71;100.00;99581.91;5243208;28;20071;-45
2023/10/30 09:07:42;;;;;;;3.25;1.30;;;15.50;99.90;;;15.80;100.00;99578.41;5250119;28;20063;-45
2023/10/30 09:10:15;;;;;;;2.00;1.25;;;15.50;99.90;;;15.85;100.00;99577.50;5246764;28;20044;-45
2023/10/30 09:12:47;;;;;;;2.50;1.30;;;15.60;99.90;;;15.83;100.00;99571.34;5242722;28;20049;-45
2023/10/30 09:15:20;;;;;;;3.33;1.35;;;15.60;99.90;;;15.82;100.00;99572.22;5243591;28;20465;-45
2023/10/30 09:17:53;;;;;;;2.20;1.30;;;15.60;99.90;;;15.86;100.00;99570.47;5248413;28;20503;-45
2023/10/30 09:20:27;;;;;;;3.50;1.50;;;15.60;99.90;;;15.93;100.00;99567.78;5246736;28;20056;-47
2023/10/30 09:22:59;;;;;;;3.50;1.80;;;15.60;99.90;;;16.00;100.00;99552.84;5246334;28;20036;-45
2023/10/30 09:25:31;;;;;;;5.25;1.88;;;15.70;99.90;;;16.08;100.00;99544.91;5241386;28;20051;-46
2023/10/30 09:28:04;;;;;;;4.15;1.30;;;15.70;99.90;;;16.09;100.00;99551.91;5246175;28;20063;-46
2023/10/30 09:30:36;;;;;;;5.15;1.42;;;15.80;99.90;;;16.10;100.00;99553.66;5243196;28;20500;-46
2023/10/30 09:33:09;;;;;;;2.22;1.13;;;15.80;99.90;;;16.21;100.00;99551.81;5239316;28;20056;-46
2023/10/30 09:35:42;;;;;;;2.67;1.25;;;15.90;99.90;;;16.22;100.00;99550.94;5242428;28;20048;-46
2023/10/30 09:38:15;;;;;;;2.22;1.05;;;15.90;99.90;;;16.21;100.00;99551.81;5246473;28;20048;-46
2023/10/30 09:40:59;;;;;;;2.60;1.13;;;15.90;99.90;;;16.22;100.00;99548.31;5240059;28;20532;-46
2023/10/30 09:43:33;;;;;;;1.60;1.13;;;15.90;99.90;;;16.20;100.00;99542.19;5244263;28;20067;-45
2023/10/30 09:46:07;;;;;;;1.52;0.90;;;15.90;99.90;;;16.12;100.00;99549.28;5244285;28;20469;-46
2023/10/30 09:48:40;;;;;;;1.85;1.13;;;15.90;99.90;;;16.09;100.00;99541.41;5246851;28;20094;-46
2023/10/30 09:51:14;;;;;;;0.98;0.90;;;15.80;99.90;;;16.07;100.00;99543.19;5244667;28;20059;-46
2023/10/30 09:53:47;;;;;;;1.08;0.90;;;15.80;99.90;;;16.00;100.00;99537.97;5242812;28;20496;-46
2023/10/30 09:56:21;;;;;;;1.55;0.75;;;15.80;99.90;;;15.96;100.00;99530.97;5244130;28;20077;-47
2023/10/30 09:58:57;;;;;;;2.65;1.00;;;15.70;99.90;;;15.96;100.00;99541.47;5245951;28;20050;-47
2023/10/30 10:01:29;;;;;;;1.65;0.73;;;15.70;99.90;;;15.96;100.00;99541.47;5240924;28;20044;-48
2023/10/30 10:04:02;;;;;;;1.10;0.88;;;15.70;99.90;;;15.96;100.00;99533.59;5240703;28;20048;-47
2023/10/30 10:06:42;;;;;;;1.42;0.93;;;15.70;99.90;;;15.96;100.00;99533.59;5244420;28;20060;-47
2023/10/30 10:09:15;;;;;;;1.40;0.82;;;15.70;99.90;;;15.93;100.00;99531.00;5242318;28;20098;-48
2023/10/30 10:11:48;;;;;;;1.52;0.88;;;15.70;99.90;;;16.09;100.00;99541.41;5244132;28;20044;-46
2023/10/30 10:14:22;;;;;;;2.72;0.90;;;15.70;99.90;;;16.06;100.00;99521.28;5244213;28;20086;-46
2023/10/30 10:17:00;;;;;;;2.25;1.10;;;15.80;99.90;;;16.12;100.00;99523.00;5236571;28;20052;-46
2023/10/30 10:19:34;;;;;;;1.63;0.70;;;15.80;99.90;;;16.14;100.00;99527.34;5237829;28;20710;-46
2023/10/30 10:22:08;;;;;;;0.90;0.73;;;15.90;99.90;;;16.19;100.00;99517.66;5249659;28;20418;-44
2023/10/30 10:24:41;;;;;;;1.60;1.00;;;15.90;99.90;;;16.33;100.00;99504.41;5246852;28;20045;-44
2023/10/30 10:27:14;;;;;;;2.42;0.80;;;16.00;99.90;;;16.47;100.00;99527.94;5248672;28;20102;-44
2023/10/30 10:29:52;;;;;;;0.70;0.70;;;16.10;99.90;;;16.57;100.00;99510.31;5241777;28;20795;-44
2023/10/30 10:32:26;;;;;;;1.02;0.60;;;16.20;99.90;;;16.59;100.00;99514.69;5246939;28;20052;-46
2023/10/30 10:35:01;;;;;;;1.42;0.73;;;16.30;99.90;;;16.62;100.00;99505.88;5248589;28;20048;-44
2023/10/30 10:37:35;;;;;;;1.08;0.68;;;16.30;99.90;;;16.66;100.00;99497.06;5250254;28;20055;-47